Petersburg, NY (12138)

7:34 AM EST on December 06, 2016 (GMT -0500)
Taconic Lake in Grafton, NY on the Rensselaer Plateau | | Change Station

Elev 1696 ft 42.73 °N, 73.42 °W | Updated 4 minutes ago

Partly Cloudy
Partly Cloudy
28.0 °F
Feels Like 28 °F
N
0.0
Wind Variable Wind from SSE
Gusts 0.0 mph

Today
High -- | Low -- °F
--% Chance of Precip.
Yesterday
High -- | Low -- °F
Precip. -- in
Pressure 30.14 in
Visibility 9.0 miles
Clouds Few 4100 ft
Windchill 28 °F
Dew Point 27 °F
Humidity 97%
Rainfall 0.00 in
Snow Depth Not available.
7:09 AM 4:19 PM
Waxing Crescent, 41% visible
METAR KAQW 061152Z AUTO 00000KT 9SM FEW041 M03/M04 A3011 RMK AO2 SLP205 70004 T10281039 10028 21028 53009
Pressure 30.14 in
Visibility 9.0 miles
Clouds Few 4100 ft
Windchill 28 °F
Dew Point 27 °F
Humidity 97%
Rainfall 0.00 in
Snow Depth Not available.
7:09 AM 4:19 PM
Waxing Crescent, 41% visible
METAR KAQW 061152Z AUTO 00000KT 9SM FEW041 M03/M04 A3011 RMK AO2 SLP205 70004 T10281039 10028 21028 53009

10-Day Weather Forecast

Almanac

Astronomy

Dec. 06, 2016 Rise Set
Actual Time
Civil Twilight
Nautical Twilight
Astronomical Twilight
Moon
Length of Visible Light
Length of Day
Tomorrow will be .
, % of the Moon is Illuminated

Today's Extremes

State Highs State Lows

Community

WunderPhotos

Upload Photos

1,955,936 photos uploaded!

WunderBlog® & News

Nearby

Air Quality

  Air Quality AQ Index Pollutant
Not available.

Snow Depth

Station Depth Elevation

Earthquake Activity

City Distance Mag. Time & Date
Minimum magnitude displayed is 2.5.

Coastal Water Temperatures

Place Temperature

Stations

Nearby Weather Stations

Station Location Temp. Windchill Dew Point Humidity Wind Precip. Elev Updated Type
                   

Watches & Warnings

There are currently no watches in effect.